This is the latest recevied weather packets stored in our database for station/object IW1RCO-13. If no packets are shown the sender has not sent any weather packets the latest 10 day(s).
| Time | Temp. | Humidity | Pressure | Rain* | Wind** | Luminosity | Snow |
|---|---|---|---|---|---|---|---|
| 1788018270 | 25° C | 58% | 1014.2 hPa | - | - | - | - |
| 1788017966 | 26.11° C | 57% | 1013.8 hPa | - | - | - | - |
| 1788017670 | 26.67° C | 55% | 1013.8 hPa | - | - | - | - |
| 1788017366 | 26.11° C | 57% | 1014.7 hPa | - | - | - | - |
| 1788017069 | 25° C | 57% | 1015 hPa | - | - | - | - |
| 1788016766 | 25.56° C | 55% | 1014.8 hPa | - | - | - | - |
| 1788014372 | 27.22° C | 50% | 1014 hPa | - | - | - | - |
| 1788013771 | 27.22° C | 50% | 1015.2 hPa | - | - | - | - |
| 1788013468 | 27.22° C | 50% | 1014.2 hPa | - | - | - | - |
| 1788013171 | 27.78° C | 49% | 1014 hPa | - | - | - | - |
| 1788012867 | 27.22° C | 52% | 1015.1 hPa | - | - | - | - |
| 1788012571 | 27.78° C | 52% | 1014.4 hPa | - | - | - | - |
| 1788012267 | 27.78° C | 49% | 1014.8 hPa | - | - | - | - |
| 1788011971 | 27.22° C | 50% | 1013.9 hPa | - | - | - | - |
| 1788011667 | 27.78° C | 51% | 1014.2 hPa | - | - | - | - |
| 1788011370 | 27.78° C | 49% | 1014.1 hPa | - | - | - | - |
| 1788011067 | 27.22° C | 51% | 1013.7 hPa | - | - | - | - |
| 1788010770 | 26.67° C | 56% | 1014.8 hPa | - | - | - | - |
| 1788010466 | 26.67° C | 55% | 1015.1 hPa | - | - | - | - |
| 1788010170 | 26.67° C | 58% | 1014.7 hPa | - | - | - | - |
| 1788009866 | 27.22° C | 56% | 1015 hPa | - | - | - | - |
| 1788009570 | 27.22° C | 57% | 1015.1 hPa | - | - | - | - |
| 1788009266 | 26.67° C | 54% | 1014.7 hPa | - | - | - | - |
| 1788008976 | 26.11° C | 58% | 1014 hPa | - | - | - | - |
| 1788008666 | 26.67° C | 61% | 1015 hPa | - | - | - | - |
* Rain since midnight (hover to see other rain measurements)
** Current wind speed in m/s (hover to see current wind gust speed)